Time;durP1;ratioP1;P1;durP2;ratioP2;P2;SDS_P1;SDS_P2;PMS_P1;PMS_P2;Temp;Humidity;BMP_temperature;BMP_pressure;BME280_temperature;BME280_humidity;BME280_pressure;Samples;Min_cycle;Max_cycle;Signal;HPM_P1;HPM_P2
2023/01/05 02:11:21;;;;;;;;;;;;;;;;;;;;;
2023/01/05 03:43:39;;;;;;;1011.40;472.40;;;9.30;99.90;;;;;;4630102;30;20087;-90
2023/01/05 03:50:04;;;;;;;994.83;482.67;;;9.30;99.90;;;;;;4579663;31;19966;-91
2023/01/05 03:53:56;;;;;;;;;;;;;;;;;;;;;
2023/01/05 04:00:34;;;;;;;915.30;412.93;;;9.30;99.90;;;;;;4580079;31;20095;-90
2023/01/05 04:03:20;;;;;;;914.58;417.95;;;9.40;99.90;;;;;;4554184;31;20049;-90
2023/01/05 04:14:25;;;;;;;1005.97;475.43;;;9.40;99.90;;;;;;4515423;31;20069;-90
2023/01/05 04:18:11;;;;;;;1030.90;464.40;;;9.40;99.90;;;;;;4421116;32;20072;-89
2023/01/05 04:20:47;;;;;;;976.90;425.93;;;9.20;99.90;;;;;;4413131;32;20720;-89
2023/01/05 04:51:46;;;;;;;1124.97;458.17;;;9.30;99.90;;;;;;4574830;31;20063;-90
2023/01/05 05:06:46;;;;;;;1108.87;457.30;;;9.60;99.90;;;;;;4546818;31;20065;-88
2023/01/05 05:10:26;;;;;;;;;;;;;;;;;;;;;
2023/01/05 05:18:12;;;;;;;1167.67;489.10;;;9.50;99.90;;;;;;4550583;31;20082;-89
2023/01/05 05:22:33;;;;;;;;;;;;;;;;;;;;;
2023/01/05 05:30:47;;;;;;;1211.27;486.13;;;9.50;99.90;;;;;;4518396;31;20119;-90
2023/01/05 05:33:40;;;;;;;;;;;;;;;;;;;;;
2023/01/05 05:37:14;;;;;;;1212.23;497.80;;;9.40;99.90;;;;;;4499695;31;20070;-90
2023/01/05 05:41:03;;;;;;;1092.80;453.80;;;9.30;99.90;;;;;;4497730;31;20089;-88
2023/01/05 05:48:18;;;;;;;1145.17;469.83;;;9.40;99.90;;;;;;4525205;31;20053;-91
2023/01/05 06:06:09;;;;;;;1125.97;456.80;;;9.30;99.90;;;;;;4615357;31;20058;-88
2023/01/05 06:09:23;;;;;;;1128.83;473.53;;;9.30;99.90;;;;;;4616471;31;20074;-89
2023/01/05 06:16:16;;;;;;;1253.07;498.47;;;9.30;99.90;;;;;;4615157;31;20467;-90
2023/01/05 06:20:07;;;;;;;1058.90;435.90;;;9.30;99.90;;;;;;4598247;31;20057;-90
2023/01/05 06:31:23;;;;;;;1095.57;463.67;;;9.20;99.90;;;;;;4533061;31;20121;-89
2023/01/05 06:46:37;;;;;;;986.03;426.67;;;9.20;99.90;;;;;;4549757;31;20052;-90
2023/01/05 06:58:07;;;;;;;949.57;476.17;;;9.30;99.90;;;;;;4501526;31;20130;-89
2023/01/05 07:05:22;;;;;;;826.85;389.45;;;9.20;99.90;;;;;;4565216;31;20152;-89
2023/01/05 07:09:14;;;;;;;;;;;;;;;;;;;;;
2023/01/05 07:12:38;;;;;;;893.70;484.65;;;9.10;99.90;;;;;;4552980;31;20068;-91
2023/01/05 07:15:22;;;;;;;855.83;476.17;;;9.10;99.90;;;;;;4535764;31;20133;-91
2023/01/05 07:52:59;;;;;;;;;;;;;;;;;;;;;
2023/01/05 08:35:36;;;;;;;501.40;448.08;;;9.20;99.90;;;;;;4700361;24;20444;-90
2023/01/05 08:39:27;;;;;;;;;;;;;;;;;;;;;
2023/01/05 08:47:00;;;;;;;227.88;211.25;;;9.20;99.90;;;;;;4630133;30;20066;-89
2023/01/05 08:51:06;;;;;;;;;;;;;;;;;;;;;
2023/01/05 08:55:31;;;;;;;;;;;;;;;;;;;;;
2023/01/05 10:33:53;;;;;;;1271.90;505.77;;;9.20;99.90;;;;;;6273273;22;20906;-89
2023/01/05 10:38:11;;;;;;;;;;;;;;;;;;;;;
2023/01/05 10:46:22;;;;;;;1217.90;476.17;;;9.30;99.90;;;;;;6176993;23;20029;-88
2023/01/05 10:50:01;;;;;;;;;;;;;;;;;;;;;
2023/01/05 10:54:00;;;;;;;;;;;;;;;;;;;;;
2023/01/05 10:58:00;;;;;;;;;;;;;;;;;;;;;
2023/01/05 11:05:44;;;;;;;1252.30;524.33;;;9.50;99.90;;;;;;5612803;25;20019;-89
2023/01/05 11:09:37;;;;;;;1206.60;475.97;;;9.20;99.90;;;;;;4399405;27;21836762;-88
2023/01/05 11:15:39;;;;;;;1253.43;517.80;;;9.50;99.90;;;;;;5135586;22;20138;-86
2023/01/05 11:19:27;;;;;;;;;;;;;;;;;;;;;
2023/01/05 11:22:24;;;;;;;1246.90;521.47;;;9.60;99.90;;;;;;5036738;28;20085;-87
2023/01/05 11:25:54;;;;;;;1220.53;482.10;;;9.20;99.90;;;;;;5011914;28;20124;-89
2023/01/05 11:37:08;;;;;;;1254.07;519.60;;;9.70;99.90;;;;;;4960631;28;20057;-89
2023/01/05 11:40:55;;;;;;;;;;;;;;;;;;;;;
2023/01/05 11:48:32;;;;;;;1236.40;486.33;;;9.70;99.90;;;;;;4837371;29;20066;-89
2023/01/05 11:52:09;;;;;;;1221.47;480.50;;;9.80;99.90;;;;;;4819218;29;20142;-88
2023/01/05 14:24:56;;;;;;;;;;;;;;;;;;;;;
2023/01/05 14:58:28;;;;;;;1244.70;498.73;;;9.60;99.90;;;;;;4846402;29;20144;-89
2023/01/05 15:09:06;;;;;;;1231.97;489.33;;;9.80;99.90;;;;;;4785443;30;20481;-87
2023/01/05 15:11:57;;;;;;;1288.83;533.20;;;9.80;99.90;;;;;;4753577;30;20048;-87
2023/01/05 15:14:41;;;;;;;1248.53;496.73;;;9.80;99.90;;;;;;4761269;29;20058;-90
2023/01/05 15:17:29;;;;;;;1265.63;501.37;;;9.90;99.90;;;;;;4788930;29;20488;-86
2023/01/05 15:20:18;;;;;;;1259.63;510.37;;;9.70;99.90;;;;;;4789060;29;20058;-87
2023/01/05 15:23:26;;;;;;;1241.90;535.90;;;9.70;99.90;;;;;;4788724;29;20449;-87
2023/01/05 15:26:06;;;;;;;1230.70;520.20;;;9.70;99.90;;;;;;4749746;30;20163;-86
2023/01/05 15:28:43;;;;;;;1211.77;521.30;;;9.70;99.90;;;;;;4749930;30;20089;-85
2023/01/05 15:31:42;;;;;;;1200.53;504.40;;;9.60;99.90;;;;;;4765038;30;20067;-87
2023/01/05 15:34:36;;;;;;;1216.30;537.37;;;9.60;99.90;;;;;;4785726;30;20502;-88
2023/01/05 15:37:32;;;;;;;1223.13;533.93;;;9.10;99.90;;;;;;4797839;29;20133;-87
2023/01/05 15:40:24;;;;;;;1231.43;530.33;;;9.50;99.90;;;;;;4788761;29;20152;-89
2023/01/05 15:43:01;;;;;;;1232.90;528.97;;;9.50;99.90;;;;;;4788500;29;20101;-86
2023/01/05 15:45:48;;;;;;;1225.30;530.53;;;9.50;99.90;;;;;;4785330;29;20055;-87
2023/01/05 15:48:43;;;;;;;1238.17;531.00;;;9.40;99.90;;;;;;4806884;29;20096;-87
2023/01/05 15:51:32;;;;;;;1232.97;528.47;;;9.40;99.90;;;;;;4770742;30;20058;-88
2023/01/05 15:54:21;;;;;;;1210.95;525.70;;;9.40;99.90;;;;;;4781196;29;20057;-87
2023/01/05 15:57:01;;;;;;;1179.80;482.20;;;9.40;99.90;;;;;;4817446;29;20053;-88
2023/01/05 15:59:39;;;;;;;1185.33;490.43;;;9.30;99.90;;;;;;4811830;29;20125;-86
2023/01/05 16:02:41;;;;;;;1215.20;523.73;;;9.30;99.90;;;;;;4805141;29;20114;-90
2023/01/05 16:05:22;;;;;;;1180.23;486.37;;;9.30;99.90;;;;;;4752858;30;20056;-88
2023/01/05 16:08:07;;;;;;;1180.20;478.63;;;9.30;99.90;;;;;;4755587;30;20052;-87
2023/01/05 16:10:54;;;;;;;1219.13;526.00;;;9.30;99.90;;;;;;4756005;30;20063;-87
2023/01/05 16:13:33;;;;;;;1216.27;526.53;;;9.30;99.90;;;;;;4755860;30;20073;-88
2023/01/05 16:16:14;;;;;;;1181.47;477.43;;;9.20;99.90;;;;;;4755902;30;20059;-87
2023/01/05 16:18:52;;;;;;;1213.00;522.67;;;8.80;99.90;;;;;;4770367;30;20088;-88
2023/01/05 16:21:48;;;;;;;1213.10;522.30;;;9.20;99.90;;;;;;4738058;30;20060;-87
2023/01/05 16:24:26;;;;;;;1175.10;479.75;;;9.20;99.90;;;;;;4742117;29;20425;-87
2023/01/05 16:26:56;;;;;;;1207.63;522.03;;;9.20;99.90;;;;;;4755791;30;20088;-88
2023/01/05 16:29:51;;;;;;;1215.33;525.13;;;9.20;99.90;;;;;;4769573;30;20059;-85
2023/01/05 16:32:40;;;;;;;1214.77;535.73;;;9.20;99.90;;;;;;4737393;30;20075;-89
2023/01/05 16:35:42;;;;;;;1221.90;522.05;;;9.10;99.90;;;;;;4738025;29;20068;-87
2023/01/05 16:38:11;;;;;;;1219.57;521.23;;;9.00;99.90;;;;;;4755743;30;20051;-87
2023/01/05 16:40:55;;;;;;;1176.57;470.43;;;9.20;99.90;;;;;;4756268;30;20058;-87
2023/01/05 16:43:55;;;;;;;1168.23;473.40;;;9.20;99.90;;;;;;4862041;29;20049;-88
2023/01/05 16:46:37;;;;;;;1159.13;469.67;;;9.20;99.90;;;;;;4772628;30;20063;-89
2023/01/05 16:49:36;;;;;;;1148.30;467.27;;;9.10;99.90;;;;;;4740292;30;20560;-89
2023/01/05 16:52:27;;;;;;;1173.53;516.80;;;9.10;99.90;;;;;;4763638;30;20060;-89
2023/01/05 16:55:23;;;;;;;1170.17;516.73;;;9.20;99.90;;;;;;4737411;30;20052;-88
2023/01/05 16:57:59;;;;;;;1173.73;518.93;;;9.10;99.90;;;;;;4752233;30;20573;-89
2023/01/05 17:00:33;;;;;;;1137.10;445.83;;;8.90;99.90;;;;;;4738796;30;20091;-89
2023/01/05 17:03:57;;;;;;;1116.33;417.40;;;9.10;99.90;;;;;;4763178;30;20104;-89
2023/01/05 17:06:33;;;;;;;1116.53;413.03;;;9.10;99.90;;;;;;4758860;30;20317;-89
2023/01/05 17:09:29;;;;;;;;;;;;;;;;;;;;;
2023/01/05 17:12:07;;;;;;;1283.45;499.02;;;9.10;99.90;;;;;;4766159;30;20301;-87
2023/01/05 17:14:45;;;;;;;1276.03;506.60;;;9.10;99.90;;;;;;4768954;30;20567;-88
2023/01/05 17:17:14;;;;;;;1231.83;509.90;;;9.10;99.90;;;;;;4755036;30;20290;-87
2023/01/05 17:24:34;;;;;;;;;;;;;;;;;;;;;
2023/01/05 17:32:02;;;;;;;;;;;;;;;;;;;;;
2023/01/05 17:35:56;;;;;;;835.87;348.27;;;9.00;99.90;;;;;;4731329;30;20308;-86
2023/01/05 17:39:43;;;;;;;1035.83;408.07;;;9.00;99.90;;;;;;4631155;30;20338;-87
2023/01/05 17:54:17;;;;;;;988.13;502.93;;;9.00;99.90;;;;;;4564613;31;20276;-87
2023/01/05 18:01:39;;;;;;;993.50;501.20;;;8.90;99.90;;;;;;4551132;31;20121;-88
2023/01/05 18:08:32;;;;;;;1022.83;501.13;;;8.40;99.90;;;;;;4580819;31;20453;-89
2023/01/05 18:19:17;;;;;;;525.40;315.40;;;8.90;99.90;;;;;;4681637;30;20068;-88
2023/01/05 18:22:11;;;;;;;317.88;207.30;;;8.90;99.90;;;;;;4679222;30;20064;-89
2023/01/05 18:33:26;;;;;;;;;;;;;;;;;;;;;
2023/01/05 18:37:22;;;;;;;841.00;413.87;;;9.20;99.90;;;;;;4715878;30;20053;-87
2023/01/05 19:11:33;;;;;;;1009.70;451.87;;;9.30;99.90;;;;;;4732820;30;20063;-87
2023/01/05 19:19:00;;;;;;;1059.00;501.60;;;8.90;99.90;;;;;;4697736;30;20098;-89
2023/01/05 19:22:40;;;;;;;1076.27;467.23;;;8.90;99.90;;;;;;4735183;30;20550;-90
2023/01/05 19:37:33;;;;;;;222.82;165.25;;;8.90;99.90;;;;;;4753145;30;20043;-88
2023/01/05 19:41:26;;;;;;;;;;;;;;;;;;;;;
2023/01/05 19:45:12;;;;;;;9.82;1.77;;;8.90;99.90;;;;;;4648886;30;20128;-87
2023/01/05 19:48:06;;;;;;;915.03;469.77;;;8.90;99.90;;;;;;4687120;30;20064;-87
2023/01/05 19:50:34;;;;;;;932.50;487.80;;;8.90;99.90;;;;;;4721072;30;20061;-86
2023/01/05 19:53:05;;;;;;;1056.87;457.33;;;8.80;99.90;;;;;;4735809;30;20045;-86
2023/01/05 19:55:42;;;;;;;1176.80;500.30;;;8.90;99.90;;;;;;4712400;30;20057;-87
2023/01/05 19:58:21;;;;;;;1061.17;489.27;;;8.80;99.90;;;;;;4721319;30;20435;-87
2023/01/05 20:00:53;;;;;;;1197.80;531.37;;;8.90;99.90;;;;;;4734648;30;20056;-86
2023/01/05 20:03:19;;;;;;;1153.93;506.40;;;8.90;99.90;;;;;;4732033;30;20056;-88
2023/01/05 20:05:47;;;;;;;1138.50;470.77;;;8.90;99.90;;;;;;4770985;30;20105;-87
2023/01/05 20:08:24;;;;;;;1134.10;462.27;;;8.90;99.90;;;;;;4760594;30;20479;-86
2023/01/05 20:10:51;;;;;;;1118.47;467.37;;;8.90;99.90;;;;;;4751762;30;20090;-87
2023/01/05 20:13:35;;;;;;;1110.73;505.83;;;8.90;99.90;;;;;;4738371;30;20049;-87
2023/01/05 20:16:13;;;;;;;1098.40;507.27;;;8.90;99.90;;;;;;4737827;30;20056;-88
2023/01/05 20:18:40;;;;;;;1075.72;438.63;;;8.90;99.90;;;;;;4756202;30;20051;-87
2023/01/05 20:21:13;;;;;;;1063.33;432.43;;;8.90;99.90;;;;;;4796817;29;20076;-87
2023/01/05 20:23:45;;;;;;;1049.80;435.93;;;8.90;99.90;;;;;;4826445;29;20045;-86
2023/01/05 20:26:23;;;;;;;1041.93;431.93;;;8.90;99.90;;;;;;4861744;29;20097;-86
2023/01/05 20:28:58;;;;;;;1044.83;505.07;;;8.90;99.90;;;;;;4828484;29;20079;-87
2023/01/05 20:31:37;;;;;;;1035.67;433.57;;;8.40;99.90;;;;;;4827902;29;20085;-87
2023/01/05 20:34:24;;;;;;;1032.30;501.20;;;8.90;99.90;;;;;;4813848;29;20061;-90
2023/01/05 20:37:02;;;;;;;1025.28;428.10;;;8.90;99.90;;;;;;4845768;29;20499;-89
2023/01/05 20:39:49;;;;;;;1024.67;432.37;;;8.90;99.90;;;;;;4832742;29;20041;-88
2023/01/05 20:42:36;;;;;;;1075.90;505.80;;;9.00;99.90;;;;;;4840610;29;20065;-87
2023/01/05 20:45:13;;;;;;;1042.80;439.37;;;9.00;99.90;;;;;;4844919;29;20042;-88
2023/01/05 20:47:49;;;;;;;1029.07;502.60;;;9.00;99.90;;;;;;4840467;29;20499;-86
2023/01/05 20:50:26;;;;;;;1020.37;503.23;;;9.10;99.90;;;;;;4847063;29;20081;-86
2023/01/05 20:53:04;;;;;;;1001.30;504.83;;;9.10;99.90;;;;;;4849364;29;20519;-87
2023/01/05 20:55:44;;;;;;;995.67;501.53;;;9.10;99.90;;;;;;4828163;29;20399;-87
2023/01/05 20:58:14;;;;;;;1006.77;509.33;;;9.10;99.90;;;;;;4856023;29;20056;-89
2023/01/05 21:00:52;;;;;;;1000.07;428.77;;;9.10;99.90;;;;;;4845606;29;20499;-86
2023/01/05 21:03:25;;;;;;;1010.67;503.90;;;9.10;99.90;;;;;;4846348;29;20054;-87
2023/01/05 21:09:46;;;;;;;986.13;424.50;;;9.30;99.90;;;;;;4858131;29;20112;-87
2023/01/05 21:16:42;;;;;;;1026.93;503.33;;;9.30;99.90;;;;;;4857713;29;20048;-87
2023/01/05 21:43:05;;;;;;;1028.73;507.50;;;9.50;99.90;;;;;;4769695;30;20054;-92
2023/01/05 22:17:33;;;;;;;1088.40;462.03;;;9.70;99.90;;;;;;4590065;31;20064;-89
2023/01/05 22:20:14;;;;;;;1107.77;554.47;;;9.60;99.90;;;;;;4594262;31;20064;-87
2023/01/05 22:22:44;;;;;;;1050.73;553.33;;;9.80;99.90;;;;;;4582991;31;20064;-92
2023/01/05 22:25:20;;;;;;;1052.00;514.87;;;9.80;99.90;;;;;;4610027;31;20052;-88
2023/01/05 22:28:18;;;;;;;1040.60;450.43;;;9.80;99.90;;;;;;4583255;31;20112;-90
2023/01/05 22:31:19;;;;;;;590.83;532.65;;;9.80;99.90;;;;;;4581113;31;20457;-89
2023/01/05 22:33:51;;;;;;;1165.17;531.77;;;9.90;99.90;;;;;;4596394;31;20139;-89
2023/01/05 22:36:32;;;;;;;13.60;7.85;;;9.80;99.90;;;;;;4597121;31;20052;-91
2023/01/05 22:39:17;;;;;;;14.55;6.97;;;9.80;99.90;;;;;;4583142;31;20043;-88
2023/01/05 22:54:43;;;;;;;;;;;;;;;;;;;;;
2023/01/05 22:57:27;;;;;;;1099.87;523.23;;;10.40;99.90;;;;;;4747478;30;20521;-90
2023/01/05 23:00:17;;;;;;;1111.33;472.83;;;10.00;99.90;;;;;;4742028;30;20048;-89
2023/01/05 23:03:00;;;;;;;1136.30;524.17;;;9.90;99.90;;;;;;4665648;30;20065;-91
2023/01/05 23:05:42;;;;;;;896.93;333.67;;;9.50;99.90;;;;;;4681463;30;20142;-90
2023/01/05 23:08:34;;;;;;;782.87;451.77;;;10.00;99.90;;;;;;4666666;30;20805;-91
2023/01/05 23:11:23;;;;;;;805.17;385.23;;;10.10;99.90;;;;;;4680154;30;20265;-92
2023/01/05 23:13:59;;;;;;;499.60;235.52;;;10.00;99.90;;;;;;4680680;30;20316;-90
2023/01/05 23:16:37;;;;;;;;;;;;;;;;;;;;;
2023/01/05 23:19:33;;;;;;;21.63;7.85;;;10.00;99.90;;;;;;4877755;29;19924;-90
2023/01/05 23:22:23;;;;;;;22.52;7.32;;;10.10;99.90;;;;;;4862124;29;20113;-92
2023/01/05 23:25:51;;;;;;;14.77;6.53;;;10.10;99.90;;;;;;4858745;29;20132;-90
2023/01/05 23:37:28;;;;;;;15.77;6.00;;;10.10;99.90;;;;;;4804968;29;20045;-91
2023/01/05 23:44:59;;;;;;;11.25;4.57;;;10.10;99.90;;;;;;4792716;29;20049;-91
2023/01/05 23:49:13;;;;;;;10.55;4.80;;;10.10;99.90;;;;;;4750323;30;20143;-92
